sensor_id;sensor_type;location;lat;lon;timestamp;P1;durP1;ratioP1;P2;durP2;ratioP2
15990;SDS011;8100;50.994;4.538;2023-02-15T00:01:32;54.45;;;30.30;;
15990;SDS011;8100;50.994;4.538;2023-02-15T00:04:22;53.80;;;31.08;;
15990;SDS011;8100;50.994;4.538;2023-02-15T00:07:30;51.03;;;30.30;;
15990;SDS011;8100;50.994;4.538;2023-02-15T00:10:18;51.53;;;29.83;;
15990;SDS011;8100;50.994;4.538;2023-02-15T00:13:05;45.75;;;27.77;;
15990;SDS011;8100;50.994;4.538;2023-02-15T00:15:52;40.92;;;26.27;;
15990;SDS011;8100;50.994;4.538;2023-02-15T00:18:39;45.88;;;27.33;;
15990;SDS011;8100;50.994;4.538;2023-02-15T00:21:28;40.05;;;24.00;;
15990;SDS011;8100;50.994;4.538;2023-02-15T00:24:17;42.13;;;24.92;;
15990;SDS011;8100;50.994;4.538;2023-02-15T00:27:05;41.00;;;25.75;;
15990;SDS011;8100;50.994;4.538;2023-02-15T00:29:54;42.25;;;24.42;;
15990;SDS011;8100;50.994;4.538;2023-02-15T00:32:41;39.65;;;24.02;;
15990;SDS011;8100;50.994;4.538;2023-02-15T00:35:28;40.22;;;23.90;;
15990;SDS011;8100;50.994;4.538;2023-02-15T00:38:17;41.13;;;23.67;;
15990;SDS011;8100;50.994;4.538;2023-02-15T00:41:05;36.75;;;22.73;;
15990;SDS011;8100;50.994;4.538;2023-02-15T00:43:53;39.03;;;23.02;;
15990;SDS011;8100;50.994;4.538;2023-02-15T00:46:40;37.65;;;23.05;;
15990;SDS011;8100;50.994;4.538;2023-02-15T00:49:27;36.95;;;23.52;;
15990;SDS011;8100;50.994;4.538;2023-02-15T00:52:14;37.20;;;23.73;;
15990;SDS011;8100;50.994;4.538;2023-02-15T00:55:03;35.60;;;22.58;;
15990;SDS011;8100;50.994;4.538;2023-02-15T00:57:50;38.13;;;23.58;;
15990;SDS011;8100;50.994;4.538;2023-02-15T01:00:38;38.80;;;23.02;;
15990;SDS011;8100;50.994;4.538;2023-02-15T01:03:26;38.30;;;22.50;;
15990;SDS011;8100;50.994;4.538;2023-02-15T01:06:14;36.65;;;22.30;;
15990;SDS011;8100;50.994;4.538;2023-02-15T01:09:01;36.75;;;22.75;;
15990;SDS011;8100;50.994;4.538;2023-02-15T01:11:50;36.75;;;23.67;;
15990;SDS011;8100;50.994;4.538;2023-02-15T01:14:37;34.80;;;22.77;;
15990;SDS011;8100;50.994;4.538;2023-02-15T01:17:25;41.20;;;23.88;;
15990;SDS011;8100;50.994;4.538;2023-02-15T01:20:12;38.63;;;23.45;;
15990;SDS011;8100;50.994;4.538;2023-02-15T01:23:00;37.53;;;22.17;;
15990;SDS011;8100;50.994;4.538;2023-02-15T01:25:47;36.55;;;23.35;;
15990;SDS011;8100;50.994;4.538;2023-02-15T01:28:36;41.25;;;24.25;;
15990;SDS011;8100;50.994;4.538;2023-02-15T01:31:23;36.85;;;22.90;;
15990;SDS011;8100;50.994;4.538;2023-02-15T01:34:11;34.30;;;22.55;;
15990;SDS011;8100;50.994;4.538;2023-02-15T01:36:58;35.92;;;22.17;;
15990;SDS011;8100;50.994;4.538;2023-02-15T01:39:45;36.67;;;23.27;;
15990;SDS011;8100;50.994;4.538;2023-02-15T01:42:32;35.75;;;22.55;;
15990;SDS011;8100;50.994;4.538;2023-02-15T01:45:22;36.40;;;23.58;;
15990;SDS011;8100;50.994;4.538;2023-02-15T01:48:15;35.80;;;22.13;;
15990;SDS011;8100;50.994;4.538;2023-02-15T01:51:07;33.38;;;22.42;;
15990;SDS011;8100;50.994;4.538;2023-02-15T01:53:56;37.60;;;22.42;;
15990;SDS011;8100;50.994;4.538;2023-02-15T01:56:47;33.97;;;22.67;;
15990;SDS011;8100;50.994;4.538;2023-02-15T01:59:35;35.70;;;22.25;;
15990;SDS011;8100;50.994;4.538;2023-02-15T02:02:25;37.25;;;22.05;;
15990;SDS011;8100;50.994;4.538;2023-02-15T02:05:14;36.83;;;21.77;;
15990;SDS011;8100;50.994;4.538;2023-02-15T02:08:01;35.72;;;22.40;;
15990;SDS011;8100;50.994;4.538;2023-02-15T02:10:49;32.63;;;21.45;;
15990;SDS011;8100;50.994;4.538;2023-02-15T02:13:36;33.95;;;21.20;;
15990;SDS011;8100;50.994;4.538;2023-02-15T02:16:25;37.33;;;21.67;;
15990;SDS011;8100;50.994;4.538;2023-02-15T02:19:45;34.20;;;21.33;;
15990;SDS011;8100;50.994;4.538;2023-02-15T02:23:11;34.13;;;21.35;;
15990;SDS011;8100;50.994;4.538;2023-02-15T02:29:46;34.88;;;22.73;;
15990;SDS011;8100;50.994;4.538;2023-02-15T02:33:12;34.53;;;21.90;;
15990;SDS011;8100;50.994;4.538;2023-02-15T02:36:08;36.47;;;21.95;;
15990;SDS011;8100;50.994;4.538;2023-02-15T02:39:07;35.03;;;21.92;;
15990;SDS011;8100;50.994;4.538;2023-02-15T02:42:01;36.33;;;22.55;;
15990;SDS011;8100;50.994;4.538;2023-02-15T02:44:53;41.53;;;23.77;;
15990;SDS011;8100;50.994;4.538;2023-02-15T02:47:44;38.15;;;22.63;;
15990;SDS011;8100;50.994;4.538;2023-02-15T02:50:38;41.70;;;24.63;;
15990;SDS011;8100;50.994;4.538;2023-02-15T02:53:26;39.58;;;23.88;;
15990;SDS011;8100;50.994;4.538;2023-02-15T02:56:18;41.25;;;24.13;;
15990;SDS011;8100;50.994;4.538;2023-02-15T02:59:09;45.70;;;24.65;;
15990;SDS011;8100;50.994;4.538;2023-02-15T03:02:02;36.50;;;23.20;;
15990;SDS011;8100;50.994;4.538;2023-02-15T03:04:58;38.67;;;23.58;;
15990;SDS011;8100;50.994;4.538;2023-02-15T03:07:50;37.65;;;23.02;;
15990;SDS011;8100;50.994;4.538;2023-02-15T03:10:39;35.40;;;22.33;;
15990;SDS011;8100;50.994;4.538;2023-02-15T03:13:27;37.72;;;21.75;;
15990;SDS011;8100;50.994;4.538;2023-02-15T03:16:15;38.92;;;23.27;;
15990;SDS011;8100;50.994;4.538;2023-02-15T03:19:13;37.05;;;23.02;;
15990;SDS011;8100;50.994;4.538;2023-02-15T03:22:04;37.85;;;23.08;;
15990;SDS011;8100;50.994;4.538;2023-02-15T03:24:58;32.33;;;21.42;;
15990;SDS011;8100;50.994;4.538;2023-02-15T03:27:49;41.00;;;22.38;;
15990;SDS011;8100;50.994;4.538;2023-02-15T03:30:39;35.00;;;21.98;;
15990;SDS011;8100;50.994;4.538;2023-02-15T03:33:28;37.15;;;22.35;;
15990;SDS011;8100;50.994;4.538;2023-02-15T03:36:18;38.08;;;22.83;;
15990;SDS011;8100;50.994;4.538;2023-02-15T03:39:08;35.80;;;21.52;;
15990;SDS011;8100;50.994;4.538;2023-02-15T03:42:03;36.83;;;21.95;;
15990;SDS011;8100;50.994;4.538;2023-02-15T03:44:56;38.25;;;22.15;;
15990;SDS011;8100;50.994;4.538;2023-02-15T03:47:47;34.50;;;21.13;;
15990;SDS011;8100;50.994;4.538;2023-02-15T03:50:37;34.53;;;21.25;;
15990;SDS011;8100;50.994;4.538;2023-02-15T03:53:42;35.63;;;21.17;;
15990;SDS011;8100;50.994;4.538;2023-02-15T03:56:31;35.38;;;21.50;;
15990;SDS011;8100;50.994;4.538;2023-02-15T03:59:22;34.30;;;21.20;;
15990;SDS011;8100;50.994;4.538;2023-02-15T04:02:27;34.78;;;21.90;;
15990;SDS011;8100;50.994;4.538;2023-02-15T04:05:21;37.47;;;22.02;;
15990;SDS011;8100;50.994;4.538;2023-02-15T04:08:09;37.13;;;21.60;;
15990;SDS011;8100;50.994;4.538;2023-02-15T04:10:57;35.03;;;21.42;;
15990;SDS011;8100;50.994;4.538;2023-02-15T04:13:43;34.20;;;20.17;;
15990;SDS011;8100;50.994;4.538;2023-02-15T04:16:32;34.67;;;20.95;;
15990;SDS011;8100;50.994;4.538;2023-02-15T04:19:18;35.38;;;21.10;;
15990;SDS011;8100;50.994;4.538;2023-02-15T04:22:23;35.40;;;21.23;;
15990;SDS011;8100;50.994;4.538;2023-02-15T04:25:28;35.53;;;21.20;;
15990;SDS011;8100;50.994;4.538;2023-02-15T04:28:15;36.05;;;20.95;;
15990;SDS011;8100;50.994;4.538;2023-02-15T04:31:02;36.35;;;21.20;;
15990;SDS011;8100;50.994;4.538;2023-02-15T04:33:51;35.88;;;21.45;;
15990;SDS011;8100;50.994;4.538;2023-02-15T04:36:38;33.67;;;20.88;;
15990;SDS011;8100;50.994;4.538;2023-02-15T04:39:26;36.15;;;21.20;;
15990;SDS011;8100;50.994;4.538;2023-02-15T04:42:13;30.48;;;19.52;;
15990;SDS011;8100;50.994;4.538;2023-02-15T04:45:00;33.97;;;20.02;;
15990;SDS011;8100;50.994;4.538;2023-02-15T04:47:47;35.03;;;20.20;;
15990;SDS011;8100;50.994;4.538;2023-02-15T04:50:36;34.00;;;20.48;;
15990;SDS011;8100;50.994;4.538;2023-02-15T04:53:23;39.17;;;20.58;;
15990;SDS011;8100;50.994;4.538;2023-02-15T04:56:11;35.05;;;19.88;;
15990;SDS011;8100;50.994;4.538;2023-02-15T04:58:58;33.95;;;20.58;;
15990;SDS011;8100;50.994;4.538;2023-02-15T05:01:45;32.83;;;20.58;;
15990;SDS011;8100;50.994;4.538;2023-02-15T05:04:32;34.28;;;20.35;;
15990;SDS011;8100;50.994;4.538;2023-02-15T05:07:21;34.15;;;19.98;;
15990;SDS011;8100;50.994;4.538;2023-02-15T05:10:08;33.10;;;20.30;;
15990;SDS011;8100;50.994;4.538;2023-02-15T05:12:55;33.90;;;19.65;;
15990;SDS011;8100;50.994;4.538;2023-02-15T05:15:46;37.92;;;21.50;;
15990;SDS011;8100;50.994;4.538;2023-02-15T05:18:33;34.85;;;20.65;;
15990;SDS011;8100;50.994;4.538;2023-02-15T05:21:21;34.85;;;21.55;;
15990;SDS011;8100;50.994;4.538;2023-02-15T05:24:09;37.20;;;21.17;;
15990;SDS011;8100;50.994;4.538;2023-02-15T05:27:11;35.15;;;20.50;;
15990;SDS011;8100;50.994;4.538;2023-02-15T05:30:16;33.88;;;20.38;;
15990;SDS011;8100;50.994;4.538;2023-02-15T05:33:04;32.47;;;20.23;;
15990;SDS011;8100;50.994;4.538;2023-02-15T05:35:51;32.05;;;20.17;;
15990;SDS011;8100;50.994;4.538;2023-02-15T05:38:38;31.58;;;20.00;;
15990;SDS011;8100;50.994;4.538;2023-02-15T05:41:27;36.15;;;20.85;;
15990;SDS011;8100;50.994;4.538;2023-02-15T05:44:14;36.67;;;20.05;;
15990;SDS011;8100;50.994;4.538;2023-02-15T05:47:01;38.85;;;20.42;;
15990;SDS011;8100;50.994;4.538;2023-02-15T05:49:49;34.00;;;20.08;;
15990;SDS011;8100;50.994;4.538;2023-02-15T05:52:37;34.22;;;19.60;;
15990;SDS011;8100;50.994;4.538;2023-02-15T05:55:24;35.78;;;19.58;;
15990;SDS011;8100;50.994;4.538;2023-02-15T05:58:12;39.33;;;20.40;;
15990;SDS011;8100;50.994;4.538;2023-02-15T06:01:06;32.40;;;19.13;;
15990;SDS011;8100;50.994;4.538;2023-02-15T06:03:54;33.13;;;19.35;;
15990;SDS011;8100;50.994;4.538;2023-02-15T06:06:42;36.10;;;19.42;;
15990;SDS011;8100;50.994;4.538;2023-02-15T06:09:29;34.30;;;19.58;;
15990;SDS011;8100;50.994;4.538;2023-02-15T06:12:16;31.95;;;19.10;;
15990;SDS011;8100;50.994;4.538;2023-02-15T06:15:05;31.85;;;18.67;;
15990;SDS011;8100;50.994;4.538;2023-02-15T06:17:53;33.70;;;18.77;;
15990;SDS011;8100;50.994;4.538;2023-02-15T06:20:40;33.83;;;19.70;;
15990;SDS011;8100;50.994;4.538;2023-02-15T06:23:27;32.03;;;19.48;;
15990;SDS011;8100;50.994;4.538;2023-02-15T06:26:14;32.00;;;18.77;;
15990;SDS011;8100;50.994;4.538;2023-02-15T06:29:02;31.45;;;18.85;;
15990;SDS011;8100;50.994;4.538;2023-02-15T06:31:51;31.52;;;18.95;;
15990;SDS011;8100;50.994;4.538;2023-02-15T06:34:38;31.38;;;18.90;;
15990;SDS011;8100;50.994;4.538;2023-02-15T06:37:25;27.75;;;18.10;;
15990;SDS011;8100;50.994;4.538;2023-02-15T06:40:12;33.22;;;18.90;;
15990;SDS011;8100;50.994;4.538;2023-02-15T06:43:00;35.00;;;18.50;;
15990;SDS011;8100;50.994;4.538;2023-02-15T06:45:48;32.30;;;18.90;;
15990;SDS011;8100;50.994;4.538;2023-02-15T06:48:36;31.35;;;18.25;;
15990;SDS011;8100;50.994;4.538;2023-02-15T06:51:23;34.55;;;19.02;;
15990;SDS011;8100;50.994;4.538;2023-02-15T06:54:11;30.27;;;18.10;;
15990;SDS011;8100;50.994;4.538;2023-02-15T06:56:58;32.15;;;18.95;;
15990;SDS011;8100;50.994;4.538;2023-02-15T06:59:45;31.95;;;18.73;;
15990;SDS011;8100;50.994;4.538;2023-02-15T07:02:32;32.97;;;18.77;;
15990;SDS011;8100;50.994;4.538;2023-02-15T07:05:21;31.67;;;18.42;;
15990;SDS011;8100;50.994;4.538;2023-02-15T07:08:09;33.60;;;18.58;;
15990;SDS011;8100;50.994;4.538;2023-02-15T07:10:56;30.92;;;18.58;;
15990;SDS011;8100;50.994;4.538;2023-02-15T07:14:03;33.42;;;17.65;;
15990;SDS011;8100;50.994;4.538;2023-02-15T07:16:50;32.00;;;18.90;;
15990;SDS011;8100;50.994;4.538;2023-02-15T07:19:37;33.05;;;19.38;;
15990;SDS011;8100;50.994;4.538;2023-02-15T07:22:26;27.35;;;18.15;;
15990;SDS011;8100;50.994;4.538;2023-02-15T07:25:14;31.55;;;18.83;;
15990;SDS011;8100;50.994;4.538;2023-02-15T07:28:02;29.63;;;18.77;;
15990;SDS011;8100;50.994;4.538;2023-02-15T07:30:50;29.92;;;18.55;;
15990;SDS011;8100;50.994;4.538;2023-02-15T07:33:37;27.90;;;17.85;;
15990;SDS011;8100;50.994;4.538;2023-02-15T07:36:25;33.28;;;19.42;;
15990;SDS011;8100;50.994;4.538;2023-02-15T07:39:13;34.38;;;19.17;;
15990;SDS011;8100;50.994;4.538;2023-02-15T07:42:00;31.70;;;18.88;;
15990;SDS011;8100;50.994;4.538;2023-02-15T07:44:47;31.83;;;18.13;;
15990;SDS011;8100;50.994;4.538;2023-02-15T07:47:35;29.85;;;18.50;;
15990;SDS011;8100;50.994;4.538;2023-02-15T07:50:22;31.70;;;18.20;;
15990;SDS011;8100;50.994;4.538;2023-02-15T07:53:09;34.00;;;18.92;;
15990;SDS011;8100;50.994;4.538;2023-02-15T07:55:59;30.55;;;19.05;;
15990;SDS011;8100;50.994;4.538;2023-02-15T07:58:46;32.83;;;19.73;;
15990;SDS011;8100;50.994;4.538;2023-02-15T08:01:41;33.83;;;19.42;;
15990;SDS011;8100;50.994;4.538;2023-02-15T08:04:28;35.95;;;21.27;;
15990;SDS011;8100;50.994;4.538;2023-02-15T08:07:16;33.38;;;19.95;;
15990;SDS011;8100;50.994;4.538;2023-02-15T08:10:04;34.40;;;19.90;;
15990;SDS011;8100;50.994;4.538;2023-02-15T08:12:57;36.67;;;18.92;;
15990;SDS011;8100;50.994;4.538;2023-02-15T08:15:58;37.90;;;20.17;;
15990;SDS011;8100;50.994;4.538;2023-02-15T08:18:47;31.20;;;19.15;;
15990;SDS011;8100;50.994;4.538;2023-02-15T08:21:35;31.23;;;19.55;;
15990;SDS011;8100;50.994;4.538;2023-02-15T08:24:24;33.55;;;19.95;;
15990;SDS011;8100;50.994;4.538;2023-02-15T08:27:13;33.55;;;19.35;;
15990;SDS011;8100;50.994;4.538;2023-02-15T08:30:01;34.35;;;20.35;;
15990;SDS011;8100;50.994;4.538;2023-02-15T08:32:49;30.73;;;18.95;;
15990;SDS011;8100;50.994;4.538;2023-02-15T08:35:37;32.55;;;18.60;;
15990;SDS011;8100;50.994;4.538;2023-02-15T08:38:24;35.88;;;19.65;;
15990;SDS011;8100;50.994;4.538;2023-02-15T08:41:12;32.33;;;18.88;;
15990;SDS011;8100;50.994;4.538;2023-02-15T08:44:01;31.48;;;18.88;;
15990;SDS011;8100;50.994;4.538;2023-02-15T08:46:53;34.20;;;19.25;;
15990;SDS011;8100;50.994;4.538;2023-02-15T08:49:42;34.92;;;20.27;;
15990;SDS011;8100;50.994;4.538;2023-02-15T08:52:30;34.78;;;19.70;;
15990;SDS011;8100;50.994;4.538;2023-02-15T08:55:17;35.45;;;20.02;;
15990;SDS011;8100;50.994;4.538;2023-02-15T08:58:04;36.13;;;19.85;;
15990;SDS011;8100;50.994;4.538;2023-02-15T09:00:51;32.47;;;19.42;;
15990;SDS011;8100;50.994;4.538;2023-02-15T09:03:40;36.20;;;20.52;;
15990;SDS011;8100;50.994;4.538;2023-02-15T09:06:27;37.10;;;20.67;;
15990;SDS011;8100;50.994;4.538;2023-02-15T09:09:15;35.78;;;19.65;;
15990;SDS011;8100;50.994;4.538;2023-02-15T09:12:03;36.63;;;20.55;;
15990;SDS011;8100;50.994;4.538;2023-02-15T09:14:50;37.28;;;21.02;;
15990;SDS011;8100;50.994;4.538;2023-02-15T09:17:38;37.25;;;20.48;;
15990;SDS011;8100;50.994;4.538;2023-02-15T09:20:26;37.55;;;20.00;;
15990;SDS011;8100;50.994;4.538;2023-02-15T09:23:14;37.03;;;20.60;;
15990;SDS011;8100;50.994;4.538;2023-02-15T09:26:03;36.80;;;20.70;;
15990;SDS011;8100;50.994;4.538;2023-02-15T09:28:51;34.55;;;19.83;;
15990;SDS011;8100;50.994;4.538;2023-02-15T09:31:41;36.65;;;19.45;;
15990;SDS011;8100;50.994;4.538;2023-02-15T09:34:30;41.13;;;20.05;;
15990;SDS011;8100;50.994;4.538;2023-02-15T09:37:19;39.65;;;20.38;;
15990;SDS011;8100;50.994;4.538;2023-02-15T09:40:06;34.05;;;19.35;;
15990;SDS011;8100;50.994;4.538;2023-02-15T09:42:58;37.05;;;19.73;;
15990;SDS011;8100;50.994;4.538;2023-02-15T09:46:03;33.88;;;19.52;;
15990;SDS011;8100;50.994;4.538;2023-02-15T09:49:03;35.40;;;19.42;;
15990;SDS011;8100;50.994;4.538;2023-02-15T09:52:12;35.90;;;18.98;;
15990;SDS011;8100;50.994;4.538;2023-02-15T09:55:24;35.03;;;19.63;;
15990;SDS011;8100;50.994;4.538;2023-02-15T09:58:38;39.72;;;20.15;;
15990;SDS011;8100;50.994;4.538;2023-02-15T10:01:34;36.95;;;20.20;;
15990;SDS011;8100;50.994;4.538;2023-02-15T10:04:33;39.78;;;21.42;;
15990;SDS011;8100;50.994;4.538;2023-02-15T10:07:36;37.92;;;20.23;;
15990;SDS011;8100;50.994;4.538;2023-02-15T10:10:39;37.88;;;20.35;;
15990;SDS011;8100;50.994;4.538;2023-02-15T10:13:34;36.72;;;20.00;;
15990;SDS011;8100;50.994;4.538;2023-02-15T10:16:30;36.15;;;20.00;;
15990;SDS011;8100;50.994;4.538;2023-02-15T10:19:25;38.90;;;21.92;;
15990;SDS011;8100;50.994;4.538;2023-02-15T10:22:23;37.75;;;19.88;;
15990;SDS011;8100;50.994;4.538;2023-02-15T10:25:25;41.25;;;21.02;;
15990;SDS011;8100;50.994;4.538;2023-02-15T10:28:23;39.55;;;21.30;;
15990;SDS011;8100;50.994;4.538;2023-02-15T10:31:19;38.92;;;20.98;;
15990;SDS011;8100;50.994;4.538;2023-02-15T10:34:12;39.22;;;20.63;;
15990;SDS011;8100;50.994;4.538;2023-02-15T10:37:12;40.42;;;20.55;;
15990;SDS011;8100;50.994;4.538;2023-02-15T10:40:28;34.35;;;19.48;;
15990;SDS011;8100;50.994;4.538;2023-02-15T10:43:28;45.88;;;20.13;;
15990;SDS011;8100;50.994;4.538;2023-02-15T10:46:34;39.33;;;19.45;;
15990;SDS011;8100;50.994;4.538;2023-02-15T10:49:39;37.67;;;18.52;;
15990;SDS011;8100;50.994;4.538;2023-02-15T10:52:38;35.63;;;17.95;;
15990;SDS011;8100;50.994;4.538;2023-02-15T10:55:40;39.00;;;18.13;;
15990;SDS011;8100;50.994;4.538;2023-02-15T10:58:42;33.20;;;17.40;;
15990;SDS011;8100;50.994;4.538;2023-02-15T11:01:38;36.17;;;18.38;;
15990;SDS011;8100;50.994;4.538;2023-02-15T11:04:35;35.85;;;18.17;;
15990;SDS011;8100;50.994;4.538;2023-02-15T11:07:32;37.47;;;18.50;;
15990;SDS011;8100;50.994;4.538;2023-02-15T11:10:26;38.92;;;18.38;;
15990;SDS011;8100;50.994;4.538;2023-02-15T11:13:17;38.92;;;17.85;;
15990;SDS011;8100;50.994;4.538;2023-02-15T11:16:08;34.13;;;18.08;;
15990;SDS011;8100;50.994;4.538;2023-02-15T11:19:01;35.00;;;18.13;;
15990;SDS011;8100;50.994;4.538;2023-02-15T11:21:54;38.35;;;17.42;;
15990;SDS011;8100;50.994;4.538;2023-02-15T11:24:45;35.55;;;18.20;;
15990;SDS011;8100;50.994;4.538;2023-02-15T11:27:33;43.92;;;19.58;;
15990;SDS011;8100;50.994;4.538;2023-02-15T11:30:21;35.67;;;18.27;;
15990;SDS011;8100;50.994;4.538;2023-02-15T11:33:15;38.13;;;19.38;;
15990;SDS011;8100;50.994;4.538;2023-02-15T11:36:08;38.75;;;18.27;;
15990;SDS011;8100;50.994;4.538;2023-02-15T11:39:01;37.17;;;18.55;;
15990;SDS011;8100;50.994;4.538;2023-02-15T11:41:55;36.75;;;19.13;;
15990;SDS011;8100;50.994;4.538;2023-02-15T11:44:49;39.40;;;19.15;;
15990;SDS011;8100;50.994;4.538;2023-02-15T11:47:43;37.15;;;18.63;;
15990;SDS011;8100;50.994;4.538;2023-02-15T11:50:32;43.78;;;18.58;;
15990;SDS011;8100;50.994;4.538;2023-02-15T11:53:20;38.28;;;19.83;;
15990;SDS011;8100;50.994;4.538;2023-02-15T11:56:12;42.45;;;18.88;;
15990;SDS011;8100;50.994;4.538;2023-02-15T11:59:02;36.20;;;18.88;;
15990;SDS011;8100;50.994;4.538;2023-02-15T12:01:55;37.58;;;19.05;;
15990;SDS011;8100;50.994;4.538;2023-02-15T12:04:43;40.08;;;18.45;;
15990;SDS011;8100;50.994;4.538;2023-02-15T12:07:36;36.42;;;19.27;;
15990;SDS011;8100;50.994;4.538;2023-02-15T12:10:29;38.80;;;19.88;;
15990;SDS011;8100;50.994;4.538;2023-02-15T12:13:21;39.08;;;20.08;;
15990;SDS011;8100;50.994;4.538;2023-02-15T12:16:09;39.60;;;18.88;;
15990;SDS011;8100;50.994;4.538;2023-02-15T12:18:59;38.17;;;18.60;;
15990;SDS011;8100;50.994;4.538;2023-02-15T12:21:49;43.20;;;19.00;;
15990;SDS011;8100;50.994;4.538;2023-02-15T12:24:43;60.05;;;20.27;;
15990;SDS011;8100;50.994;4.538;2023-02-15T12:27:33;39.00;;;18.58;;
15990;SDS011;8100;50.994;4.538;2023-02-15T12:30:23;39.55;;;19.40;;
15990;SDS011;8100;50.994;4.538;2023-02-15T12:33:18;38.83;;;19.15;;
15990;SDS011;8100;50.994;4.538;2023-02-15T12:36:15;41.83;;;19.40;;
15990;SDS011;8100;50.994;4.538;2023-02-15T12:39:15;37.75;;;19.58;;
15990;SDS011;8100;50.994;4.538;2023-02-15T12:42:15;37.47;;;19.27;;
15990;SDS011;8100;50.994;4.538;2023-02-15T12:45:19;42.88;;;19.00;;
15990;SDS011;8100;50.994;4.538;2023-02-15T12:48:13;36.65;;;18.73;;
15990;SDS011;8100;50.994;4.538;2023-02-15T12:51:06;43.47;;;20.13;;
15990;SDS011;8100;50.994;4.538;2023-02-15T12:53:54;40.75;;;19.65;;
15990;SDS011;8100;50.994;4.538;2023-02-15T12:56:42;44.85;;;19.45;;
15990;SDS011;8100;50.994;4.538;2023-02-15T12:59:30;45.47;;;18.95;;
15990;SDS011;8100;50.994;4.538;2023-02-15T13:02:20;40.42;;;19.73;;
15990;SDS011;8100;50.994;4.538;2023-02-15T13:05:17;44.55;;;20.23;;
15990;SDS011;8100;50.994;4.538;2023-02-15T13:08:09;39.95;;;19.25;;
15990;SDS011;8100;50.994;4.538;2023-02-15T13:10:59;42.25;;;19.25;;
15990;SDS011;8100;50.994;4.538;2023-02-15T13:13:51;36.80;;;19.17;;
15990;SDS011;8100;50.994;4.538;2023-02-15T13:16:41;43.88;;;19.17;;
15990;SDS011;8100;50.994;4.538;2023-02-15T13:19:31;39.00;;;18.88;;
15990;SDS011;8100;50.994;4.538;2023-02-15T13:22:22;39.30;;;19.92;;
15990;SDS011;8100;50.994;4.538;2023-02-15T13:25:14;37.50;;;19.35;;
15990;SDS011;8100;50.994;4.538;2023-02-15T13:28:06;37.20;;;18.63;;
15990;SDS011;8100;50.994;4.538;2023-02-15T13:31:00;37.92;;;19.75;;
15990;SDS011;8100;50.994;4.538;2023-02-15T13:33:50;47.95;;;20.75;;
15990;SDS011;8100;50.994;4.538;2023-02-15T13:36:41;46.15;;;20.33;;
15990;SDS011;8100;50.994;4.538;2023-02-15T13:39:35;41.42;;;20.88;;
15990;SDS011;8100;50.994;4.538;2023-02-15T13:42:27;40.90;;;20.42;;
15990;SDS011;8100;50.994;4.538;2023-02-15T13:45:32;41.97;;;20.67;;
15990;SDS011;8100;50.994;4.538;2023-02-15T13:48:27;40.42;;;19.98;;
15990;SDS011;8100;50.994;4.538;2023-02-15T13:51:25;44.42;;;20.80;;
15990;SDS011;8100;50.994;4.538;2023-02-15T13:54:28;47.33;;;21.85;;
15990;SDS011;8100;50.994;4.538;2023-02-15T13:57:38;39.33;;;20.45;;
15990;SDS011;8100;50.994;4.538;2023-02-15T14:00:35;42.72;;;21.38;;
15990;SDS011;8100;50.994;4.538;2023-02-15T14:03:38;44.65;;;21.02;;
15990;SDS011;8100;50.994;4.538;2023-02-15T14:09:52;38.75;;;21.05;;
15990;SDS011;8100;50.994;4.538;2023-02-15T14:12:52;41.33;;;20.38;;
15990;SDS011;8100;50.994;4.538;2023-02-15T14:15:53;42.67;;;21.40;;
15990;SDS011;8100;50.994;4.538;2023-02-15T14:18:46;40.65;;;21.33;;
15990;SDS011;8100;50.994;4.538;2023-02-15T14:21:38;43.50;;;20.90;;
15990;SDS011;8100;50.994;4.538;2023-02-15T14:24:36;43.10;;;20.33;;
15990;SDS011;8100;50.994;4.538;2023-02-15T14:27:34;42.03;;;20.92;;
15990;SDS011;8100;50.994;4.538;2023-02-15T14:30:31;56.45;;;21.65;;
15990;SDS011;8100;50.994;4.538;2023-02-15T14:33:29;40.70;;;20.27;;
15990;SDS011;8100;50.994;4.538;2023-02-15T14:36:19;41.63;;;21.17;;
15990;SDS011;8100;50.994;4.538;2023-02-15T14:39:11;42.40;;;21.08;;
15990;SDS011;8100;50.994;4.538;2023-02-15T14:42:30;43.13;;;21.75;;
15990;SDS011;8100;50.994;4.538;2023-02-15T14:45:26;43.70;;;21.55;;
15990;SDS011;8100;50.994;4.538;2023-02-15T14:48:19;44.88;;;22.02;;
15990;SDS011;8100;50.994;4.538;2023-02-15T14:51:10;41.65;;;21.65;;
15990;SDS011;8100;50.994;4.538;2023-02-15T14:57:50;42.67;;;21.23;;
15990;SDS011;8100;50.994;4.538;2023-02-15T15:00:43;40.53;;;20.42;;
15990;SDS011;8100;50.994;4.538;2023-02-15T15:03:30;40.38;;;20.80;;
15990;SDS011;8100;50.994;4.538;2023-02-15T15:06:23;42.28;;;21.23;;
15990;SDS011;8100;50.994;4.538;2023-02-15T15:09:12;45.10;;;20.92;;
15990;SDS011;8100;50.994;4.538;2023-02-15T15:12:14;41.10;;;20.90;;
15990;SDS011;8100;50.994;4.538;2023-02-15T15:15:32;43.80;;;21.20;;
15990;SDS011;8100;50.994;4.538;2023-02-15T15:21:56;41.45;;;22.05;;
15990;SDS011;8100;50.994;4.538;2023-02-15T15:24:49;41.22;;;21.80;;
15990;SDS011;8100;50.994;4.538;2023-02-15T15:27:50;42.72;;;22.27;;
15990;SDS011;8100;50.994;4.538;2023-02-15T15:37:46;47.10;;;22.42;;
15990;SDS011;8100;50.994;4.538;2023-02-15T15:44:19;47.85;;;22.75;;
15990;SDS011;8100;50.994;4.538;2023-02-15T15:47:42;47.83;;;23.73;;
15990;SDS011;8100;50.994;4.538;2023-02-15T15:50:40;45.83;;;23.50;;
15990;SDS011;8100;50.994;4.538;2023-02-15T15:53:29;45.97;;;23.63;;
15990;SDS011;8100;50.994;4.538;2023-02-15T15:56:20;56.88;;;24.88;;
15990;SDS011;8100;50.994;4.538;2023-02-15T15:59:12;46.00;;;24.08;;
15990;SDS011;8100;50.994;4.538;2023-02-15T16:02:03;50.53;;;25.20;;
15990;SDS011;8100;50.994;4.538;2023-02-15T16:04:53;47.25;;;24.25;;
15990;SDS011;8100;50.994;4.538;2023-02-15T16:07:40;47.40;;;25.63;;
15990;SDS011;8100;50.994;4.538;2023-02-15T16:10:28;49.60;;;25.55;;
15990;SDS011;8100;50.994;4.538;2023-02-15T16:13:19;59.05;;;25.63;;
15990;SDS011;8100;50.994;4.538;2023-02-15T16:16:07;47.10;;;25.08;;
15990;SDS011;8100;50.994;4.538;2023-02-15T16:18:54;52.97;;;25.45;;
15990;SDS011;8100;50.994;4.538;2023-02-15T16:21:46;49.00;;;24.58;;
15990;SDS011;8100;50.994;4.538;2023-02-15T16:24:42;50.42;;;25.58;;
15990;SDS011;8100;50.994;4.538;2023-02-15T16:27:49;49.63;;;25.27;;
15990;SDS011;8100;50.994;4.538;2023-02-15T16:30:37;52.38;;;25.25;;
15990;SDS011;8100;50.994;4.538;2023-02-15T16:33:33;50.80;;;25.98;;
15990;SDS011;8100;50.994;4.538;2023-02-15T16:36:24;48.80;;;25.95;;
15990;SDS011;8100;50.994;4.538;2023-02-15T16:39:22;52.83;;;26.63;;
15990;SDS011;8100;50.994;4.538;2023-02-15T16:42:09;51.45;;;25.83;;
15990;SDS011;8100;50.994;4.538;2023-02-15T16:45:00;51.25;;;26.33;;
15990;SDS011;8100;50.994;4.538;2023-02-15T16:47:53;48.30;;;24.90;;
15990;SDS011;8100;50.994;4.538;2023-02-15T16:50:46;50.42;;;25.75;;
15990;SDS011;8100;50.994;4.538;2023-02-15T16:53:35;52.25;;;24.90;;
15990;SDS011;8100;50.994;4.538;2023-02-15T16:56:25;50.20;;;25.85;;
15990;SDS011;8100;50.994;4.538;2023-02-15T16:59:18;46.25;;;25.25;;
15990;SDS011;8100;50.994;4.538;2023-02-15T17:02:15;48.97;;;25.05;;
15990;SDS011;8100;50.994;4.538;2023-02-15T17:05:13;47.42;;;24.48;;
15990;SDS011;8100;50.994;4.538;2023-02-15T17:08:12;54.28;;;26.33;;
15990;SDS011;8100;50.994;4.538;2023-02-15T17:11:12;54.63;;;26.60;;
15990;SDS011;8100;50.994;4.538;2023-02-15T17:17:13;47.17;;;24.95;;
15990;SDS011;8100;50.994;4.538;2023-02-15T17:20:01;43.97;;;24.60;;
15990;SDS011;8100;50.994;4.538;2023-02-15T17:22:49;44.90;;;23.75;;
15990;SDS011;8100;50.994;4.538;2023-02-15T17:25:37;46.47;;;24.23;;
15990;SDS011;8100;50.994;4.538;2023-02-15T17:28:27;48.70;;;25.52;;